createdAt,value
2018-11-27T00:01:00.734Z,6.02
2018-11-27T00:06:55.745Z,3.97
2018-11-27T00:12:50.744Z,4.29
2018-11-27T00:18:45.744Z,4.5
2018-11-27T00:24:40.742Z,4.25
2018-11-27T00:30:35.737Z,2.53
2018-11-27T00:36:30.746Z,2.65
2018-11-27T00:42:25.743Z,3.56
2018-11-27T00:48:20.751Z,2.12
2018-11-27T00:54:15.728Z,4.57
2018-11-27T01:00:10.750Z,1.63
2018-11-27T01:06:05.740Z,2.07
2018-11-27T01:12:00.751Z,8.25
2018-11-27T01:17:55.753Z,1.46
2018-11-27T01:23:50.748Z,2.38
2018-11-27T01:29:45.750Z,2.02
2018-11-27T01:35:40.766Z,2.6
2018-11-27T01:41:35.752Z,1.71
2018-11-27T01:47:30.762Z,3.34
2018-11-27T01:53:25.799Z,10.81
2018-11-27T01:59:20.784Z,3.11
2018-11-27T02:05:15.778Z,2.8
2018-11-27T02:11:10.786Z,5.32
2018-11-27T02:17:05.742Z,4.3
2018-11-27T02:23:00.759Z,7.49
2018-11-27T02:28:55.761Z,9.9
2018-11-27T02:34:50.758Z,18.57
2018-11-27T02:40:45.764Z,21.81
2018-11-27T02:46:40.803Z,14.88
2018-11-27T02:52:35.782Z,9.08
2018-11-27T02:58:30.775Z,10.56
2018-11-27T03:04:25.776Z,14.76
2018-11-27T03:10:20.767Z,14.2
2018-11-27T03:16:15.784Z,14.13
2018-11-27T03:22:10.789Z,14.38
2018-11-27T03:28:05.771Z,13.7
2018-11-27T03:34:00.789Z,14.66
2018-11-27T03:39:55.769Z,12.41
2018-11-27T03:45:50.780Z,13.36
2018-11-27T03:51:45.787Z,9.32
2018-11-27T03:57:40.798Z,12.02
2018-11-27T04:03:35.792Z,13.86
2018-11-27T04:09:30.798Z,9.79
2018-11-27T04:15:25.823Z,9.6
2018-11-27T04:21:20.786Z,10.34
2018-11-27T04:27:15.850Z,9.56
2018-11-27T04:33:10.814Z,9.23
2018-11-27T04:39:05.810Z,7.77
2018-11-27T04:45:00.797Z,7.48
2018-11-27T04:50:55.805Z,8.2
2018-11-27T04:56:50.802Z,13.26
2018-11-27T05:02:45.818Z,7.95
2018-11-27T05:08:40.833Z,14.95
2018-11-27T05:14:35.884Z,11.75
2018-11-27T05:20:30.831Z,24.5
2018-11-27T05:26:25.853Z,21.28
2018-11-27T05:32:20.849Z,24
2018-11-27T05:38:15.802Z,17.55
2018-11-27T05:44:10.826Z,21.73
2018-11-27T05:50:05.821Z,15.02
2018-11-27T05:56:00.805Z,14.28
2018-11-27T06:01:55.830Z,8.98
2018-11-27T06:07:50.817Z,16.08
2018-11-27T06:13:45.829Z,10.58
2018-11-27T06:19:40.834Z,9.23
2018-11-27T06:25:35.823Z,15.08
2018-11-27T06:31:30.833Z,8.52
2018-11-27T06:37:25.804Z,11.92
2018-11-27T06:43:20.840Z,14
2018-11-27T06:49:15.850Z,14.24
2018-11-27T06:55:10.843Z,21.05
2018-11-27T07:01:05.821Z,14.84
2018-11-27T07:07:00.836Z,21.21
2018-11-27T07:12:55.916Z,10.4
2018-11-27T07:18:50.854Z,16.52
2018-11-27T07:24:45.821Z,18.68
2018-11-27T07:30:40.830Z,33.73
2018-11-27T07:36:35.877Z,17.04
2018-11-27T07:42:30.828Z,16.91
2018-11-27T07:48:25.836Z,13.43
2018-11-27T07:54:20.834Z,6.21
2018-11-27T08:00:15.831Z,5.57
2018-11-27T08:06:10.829Z,9.79
2018-11-27T08:12:05.852Z,9.77
2018-11-27T08:18:00.961Z,13.28
2018-11-27T08:23:55.856Z,12.78
2018-11-27T08:29:50.835Z,11.21
2018-11-27T08:35:45.833Z,10.13
2018-11-27T08:41:40.881Z,10.5
2018-11-27T08:47:35.843Z,7.65
2018-11-27T08:53:30.844Z,7.1
2018-11-27T08:59:25.828Z,9.46
2018-11-27T09:05:20.922Z,9.5
2018-11-27T09:11:15.850Z,10.07
2018-11-27T09:17:10.925Z,5.52
2018-11-27T09:23:05.839Z,9.78
2018-11-27T09:29:00.853Z,7.67
2018-11-27T09:34:55.845Z,3.93
2018-11-27T09:40:50.862Z,7.73
2018-11-27T09:46:45.844Z,5.93
2018-11-27T09:52:40.873Z,7.31
2018-11-27T09:58:35.894Z,6.79
2018-11-27T10:04:30.864Z,7.25
2018-11-27T10:10:25.860Z,6.44
2018-11-27T10:16:20.874Z,5.64
2018-11-27T10:22:15.860Z,6.67
2018-11-27T10:28:10.858Z,4.82
2018-11-27T10:34:05.883Z,5.14
2018-11-27T10:40:00.898Z,12.03
2018-11-27T10:45:55.854Z,9.99
2018-11-27T10:51:50.849Z,6.1
2018-11-27T10:57:45.875Z,3.1
2018-11-27T11:03:40.852Z,5.17
2018-11-27T11:09:35.872Z,6.53
2018-11-27T11:15:30.911Z,3.67
2018-11-27T11:21:25.873Z,4.51
2018-11-27T11:27:20.885Z,4.83
2018-11-27T11:33:15.916Z,4.58
2018-11-27T11:39:10.871Z,6.84
2018-11-27T11:45:05.891Z,5.47
2018-11-27T11:51:00.886Z,6.01
2018-11-27T11:56:55.893Z,7
2018-11-27T12:02:50.882Z,2.9
2018-11-27T12:08:45.947Z,9.42
2018-11-27T12:14:40.913Z,7.68
2018-11-27T12:20:35.967Z,8.76
2018-11-27T12:26:30.896Z,9.7
2018-11-27T12:32:25.880Z,15.77
2018-11-27T12:38:20.911Z,11.97
2018-11-27T12:44:15.894Z,14.27
2018-11-27T12:50:10.895Z,12.81
2018-11-27T12:56:05.883Z,8.49
2018-11-27T13:02:00.933Z,5.36
2018-11-27T13:07:55.918Z,7.65
2018-11-27T13:13:50.902Z,14
2018-11-27T13:19:45.889Z,7.64
2018-11-27T13:25:40.899Z,16.73
2018-11-27T13:31:35.928Z,1.55
2018-11-27T13:37:30.913Z,7.58
2018-11-27T13:43:25.913Z,10.12
2018-11-27T13:49:20.901Z,9.7
2018-11-27T13:55:15.963Z,7.31
2018-11-27T14:01:10.922Z,6.52
2018-11-27T14:07:05.980Z,5.68
2018-11-27T14:13:00.919Z,5.17
2018-11-27T14:18:55.984Z,7.41
2018-11-27T14:24:50.973Z,11.1
2018-11-27T14:30:45.951Z,8.39
2018-11-27T14:36:40.949Z,6.64
2018-11-27T14:42:35.945Z,5.35
2018-11-27T14:48:31.031Z,6.06
2018-11-27T14:54:25.956Z,26.53
2018-11-27T15:00:20.993Z,7.92
2018-11-27T15:06:15.964Z,9.09
2018-11-27T15:12:10.953Z,6.19
2018-11-27T15:18:05.938Z,18.37
2018-11-27T15:24:00.963Z,14.44
2018-11-27T15:29:55.967Z,5.83
2018-11-27T15:35:50.951Z,7.06
2018-11-27T15:41:45.999Z,4.87
2018-11-27T15:47:40.994Z,5.52
2018-11-27T15:53:35.995Z,10.68
2018-11-27T15:59:30.945Z,13.23
2018-11-27T16:05:25.958Z,30.63
2018-11-27T16:11:20.955Z,15.11
2018-11-27T16:17:15.963Z,44.07
2018-11-27T16:23:10.958Z,10.21
2018-11-27T16:29:05.954Z,7.44
2018-11-27T16:35:00.959Z,8.98
2018-11-27T16:40:55.957Z,9.09
2018-11-27T16:46:51.012Z,7.67
2018-11-27T16:52:46.021Z,10.18
2018-11-27T16:58:40.999Z,20.43
2018-11-27T17:04:35.980Z,21.99
2018-11-27T17:10:30.975Z,21.66
2018-11-27T17:16:25.985Z,49.14
2018-11-27T17:22:20.983Z,42.12
2018-11-27T17:28:16.041Z,49.27
2018-11-27T17:34:10.977Z,35.42
2018-11-27T17:40:06.000Z,15.46
2018-11-27T17:46:00.996Z,23.5
2018-11-27T17:51:55.978Z,28.17
2018-11-27T17:57:50.994Z,8.02
2018-11-27T18:03:45.986Z,8.77
2018-11-27T18:09:40.982Z,9.12
2018-11-27T18:15:36.017Z,18.77
2018-11-27T18:21:31.030Z,18.37
2018-11-27T18:27:26.001Z,45.86
2018-11-27T18:33:20.985Z,13.09
2018-11-27T18:39:15.972Z,15
2018-11-27T18:45:11.003Z,31.09
2018-11-27T18:51:06.014Z,25.21
2018-11-27T18:57:00.998Z,20.97
2018-11-27T19:02:56.018Z,22.36
2018-11-27T19:08:50.998Z,15.48
2018-11-27T19:14:46.040Z,12.89
2018-11-27T19:20:40.980Z,14.34
2018-11-27T19:26:36.009Z,13.72
2018-11-27T19:32:31.011Z,6.32
2018-11-27T19:38:26.017Z,5.26
2018-11-27T19:44:21.005Z,7.62
2018-11-27T19:50:16.032Z,7.23
2018-11-27T19:56:11.013Z,6.43
2018-11-27T20:02:05.992Z,31.35
2018-11-27T20:08:01.010Z,19.29
2018-11-27T20:13:56.005Z,12.81
2018-11-27T20:19:51.017Z,16.38
2018-11-27T20:25:46.059Z,14.77
2018-11-27T20:31:41.054Z,15.47
2018-11-27T20:37:36.036Z,16.62
2018-11-27T20:43:31.074Z,23.14
2018-11-27T20:49:26.121Z,19.19
2018-11-27T20:55:21.018Z,26.3
2018-11-27T21:01:16.040Z,44.84
2018-11-27T21:07:11.104Z,17.01
2018-11-27T21:13:06.073Z,10.67
2018-11-27T21:19:01.088Z,10.15
2018-11-27T21:24:56.045Z,8.37
2018-11-27T21:30:51.052Z,9.34
2018-11-27T21:36:46.025Z,12.13
2018-11-27T21:42:41.031Z,10.35
2018-11-27T21:48:36.035Z,10.97
2018-11-27T21:54:31.046Z,9.56
2018-11-27T22:00:26.057Z,13.92
2018-11-27T22:06:21.076Z,7.15
2018-11-27T22:12:16.038Z,6.23
2018-11-27T22:18:11.022Z,12.37
2018-11-27T22:24:06.029Z,6.02
2018-11-27T22:30:01.034Z,11.02
2018-11-27T22:35:56.032Z,7.92
2018-11-27T22:41:51.088Z,10.47
2018-11-27T22:47:46.051Z,11.8
2018-11-27T22:53:41.090Z,11.39
2018-11-27T22:59:36.040Z,13.69
2018-11-27T23:05:31.038Z,7.89
2018-11-27T23:11:26.039Z,10.54
2018-11-27T23:17:21.065Z,10.95
2018-11-27T23:23:16.049Z,5.87
2018-11-27T23:29:11.066Z,6.44
2018-11-27T23:35:06.032Z,5.37
2018-11-27T23:41:01.049Z,6.75
2018-11-27T23:46:56.050Z,10.91
2018-11-27T23:52:51.034Z,10.89
2018-11-27T23:58:46.054Z,7.67
